sensor_id;sensor_type;location;lat;lon;timestamp;temperature;humidity
16140;DHT22;8175;49.326;12.690;2024-03-06T00:00:06;4.50;99.90
16140;DHT22;8175;49.326;12.690;2024-03-06T00:02:34;4.60;99.90
16140;DHT22;8175;49.326;12.690;2024-03-06T00:05:00;4.50;99.90
16140;DHT22;8175;49.326;12.690;2024-03-06T00:07:25;4.50;99.90
16140;DHT22;8175;49.326;12.690;2024-03-06T00:09:51;4.50;99.90
16140;DHT22;8175;49.326;12.690;2024-03-06T00:12:18;4.50;99.90
16140;DHT22;8175;49.326;12.690;2024-03-06T00:14:44;4.50;99.90
16140;DHT22;8175;49.326;12.690;2024-03-06T00:17:10;4.50;99.90
16140;DHT22;8175;49.326;12.690;2024-03-06T00:19:35;4.50;99.90
16140;DHT22;8175;49.326;12.690;2024-03-06T00:22:01;4.60;99.90
16140;DHT22;8175;49.326;12.690;2024-03-06T00:24:27;4.50;99.90
16140;DHT22;8175;49.326;12.690;2024-03-06T00:26:53;4.50;99.90
16140;DHT22;8175;49.326;12.690;2024-03-06T00:29:19;4.40;99.90
16140;DHT22;8175;49.326;12.690;2024-03-06T00:31:45;4.40;99.90
16140;DHT22;8175;49.326;12.690;2024-03-06T00:34:11;4.30;99.90
16140;DHT22;8175;49.326;12.690;2024-03-06T00:36:40;4.30;99.90
16140;DHT22;8175;49.326;12.690;2024-03-06T00:39:06;4.30;99.90
16140;DHT22;8175;49.326;12.690;2024-03-06T00:41:34;4.30;99.90
16140;DHT22;8175;49.326;12.690;2024-03-06T00:43:59;4.30;99.90
16140;DHT22;8175;49.326;12.690;2024-03-06T00:46:25;4.30;99.90
16140;DHT22;8175;49.326;12.690;2024-03-06T00:48:51;4.30;99.90
16140;DHT22;8175;49.326;12.690;2024-03-06T00:51:16;4.30;99.90
16140;DHT22;8175;49.326;12.690;2024-03-06T00:53:42;4.30;99.90
16140;DHT22;8175;49.326;12.690;2024-03-06T00:56:07;4.30;99.90
16140;DHT22;8175;49.326;12.690;2024-03-06T00:58:33;4.30;99.90
16140;DHT22;8175;49.326;12.690;2024-03-06T01:00:59;4.30;99.90
16140;DHT22;8175;49.326;12.690;2024-03-06T01:03:24;4.30;99.90
16140;DHT22;8175;49.326;12.690;2024-03-06T01:05:50;4.30;99.90
16140;DHT22;8175;49.326;12.690;2024-03-06T01:08:18;4.20;99.90
16140;DHT22;8175;49.326;12.690;2024-03-06T01:10:44;4.30;99.90
16140;DHT22;8175;49.326;12.690;2024-03-06T01:13:10;4.30;99.90
16140;DHT22;8175;49.326;12.690;2024-03-06T01:15:39;4.40;99.90
16140;DHT22;8175;49.326;12.690;2024-03-06T01:18:04;4.40;99.90
16140;DHT22;8175;49.326;12.690;2024-03-06T01:20:30;4.30;99.90
16140;DHT22;8175;49.326;12.690;2024-03-06T01:22:56;4.30;99.90
16140;DHT22;8175;49.326;12.690;2024-03-06T01:25:21;4.20;99.90
16140;DHT22;8175;49.326;12.690;2024-03-06T01:27:50;4.20;99.90
16140;DHT22;8175;49.326;12.690;2024-03-06T01:30:15;4.10;99.90
16140;DHT22;8175;49.326;12.690;2024-03-06T01:32:41;4.10;99.90
16140;DHT22;8175;49.326;12.690;2024-03-06T01:35:07;4.00;99.90
16140;DHT22;8175;49.326;12.690;2024-03-06T01:37:33;3.90;99.90
16140;DHT22;8175;49.326;12.690;2024-03-06T01:39:58;3.80;99.90
16140;DHT22;8175;49.326;12.690;2024-03-06T01:42:24;3.80;99.90
16140;DHT22;8175;49.326;12.690;2024-03-06T01:44:50;3.70;99.90
16140;DHT22;8175;49.326;12.690;2024-03-06T01:47:16;3.60;99.90
16140;DHT22;8175;49.326;12.690;2024-03-06T01:49:42;3.50;99.90
16140;DHT22;8175;49.326;12.690;2024-03-06T01:52:11;3.30;99.90
16140;DHT22;8175;49.326;12.690;2024-03-06T01:54:38;3.10;99.90
16140;DHT22;8175;49.326;12.690;2024-03-06T01:57:06;2.90;99.90
16140;DHT22;8175;49.326;12.690;2024-03-06T01:59:33;2.80;99.90
16140;DHT22;8175;49.326;12.690;2024-03-06T02:01:59;2.70;99.90
16140;DHT22;8175;49.326;12.690;2024-03-06T02:04:27;2.80;99.90
16140;DHT22;8175;49.326;12.690;2024-03-06T02:06:53;2.80;99.90
16140;DHT22;8175;49.326;12.690;2024-03-06T02:09:19;2.90;99.90
16140;DHT22;8175;49.326;12.690;2024-03-06T02:11:45;2.90;99.90
16140;DHT22;8175;49.326;12.690;2024-03-06T02:14:11;2.90;99.90
16140;DHT22;8175;49.326;12.690;2024-03-06T02:16:38;2.90;99.90
16140;DHT22;8175;49.326;12.690;2024-03-06T02:19:07;3.10;99.90
16140;DHT22;8175;49.326;12.690;2024-03-06T02:21:32;3.30;99.90
16140;DHT22;8175;49.326;12.690;2024-03-06T02:23:58;3.60;99.90
16140;DHT22;8175;49.326;12.690;2024-03-06T02:26:24;3.90;99.90
16140;DHT22;8175;49.326;12.690;2024-03-06T02:28:51;4.00;99.90
16140;DHT22;8175;49.326;12.690;2024-03-06T02:31:17;4.20;99.90
16140;DHT22;8175;49.326;12.690;2024-03-06T02:33:44;4.20;99.90
16140;DHT22;8175;49.326;12.690;2024-03-06T02:36:11;4.20;99.90
16140;DHT22;8175;49.326;12.690;2024-03-06T02:38:37;4.10;99.90
16140;DHT22;8175;49.326;12.690;2024-03-06T02:41:03;4.20;99.90
16140;DHT22;8175;49.326;12.690;2024-03-06T02:43:28;4.30;99.90
16140;DHT22;8175;49.326;12.690;2024-03-06T02:45:54;4.30;99.90
16140;DHT22;8175;49.326;12.690;2024-03-06T02:48:20;4.20;99.90
16140;DHT22;8175;49.326;12.690;2024-03-06T02:50:45;4.20;99.90
16140;DHT22;8175;49.326;12.690;2024-03-06T02:53:11;4.00;99.90
16140;DHT22;8175;49.326;12.690;2024-03-06T02:55:36;3.90;99.90
16140;DHT22;8175;49.326;12.690;2024-03-06T02:58:03;3.80;99.90
16140;DHT22;8175;49.326;12.690;2024-03-06T03:00:28;3.70;99.90
16140;DHT22;8175;49.326;12.690;2024-03-06T03:02:54;3.70;99.90
16140;DHT22;8175;49.326;12.690;2024-03-06T03:05:20;3.80;99.90
16140;DHT22;8175;49.326;12.690;2024-03-06T03:07:45;3.80;99.90
16140;DHT22;8175;49.326;12.690;2024-03-06T03:10:11;3.70;99.90
16140;DHT22;8175;49.326;12.690;2024-03-06T03:12:40;3.70;99.90
16140;DHT22;8175;49.326;12.690;2024-03-06T03:15:07;3.60;99.90
16140;DHT22;8175;49.326;12.690;2024-03-06T03:17:32;3.60;99.90
16140;DHT22;8175;49.326;12.690;2024-03-06T03:19:59;3.60;99.90
16140;DHT22;8175;49.326;12.690;2024-03-06T03:22:25;3.60;99.90
16140;DHT22;8175;49.326;12.690;2024-03-06T03:24:50;3.70;99.90
16140;DHT22;8175;49.326;12.690;2024-03-06T03:27:16;3.90;99.90
16140;DHT22;8175;49.326;12.690;2024-03-06T03:29:42;4.00;99.90
16140;DHT22;8175;49.326;12.690;2024-03-06T03:32:07;3.90;99.90
16140;DHT22;8175;49.326;12.690;2024-03-06T03:34:34;3.90;99.90
16140;DHT22;8175;49.326;12.690;2024-03-06T03:37:01;3.80;99.90
16140;DHT22;8175;49.326;12.690;2024-03-06T03:39:26;3.70;99.90
16140;DHT22;8175;49.326;12.690;2024-03-06T03:41:53;3.60;99.90
16140;DHT22;8175;49.326;12.690;2024-03-06T03:44:19;3.60;99.90
16140;DHT22;8175;49.326;12.690;2024-03-06T03:46:45;3.60;99.90
16140;DHT22;8175;49.326;12.690;2024-03-06T03:49:11;3.60;99.90
16140;DHT22;8175;49.326;12.690;2024-03-06T03:51:38;3.60;99.90
16140;DHT22;8175;49.326;12.690;2024-03-06T03:54:04;3.60;99.90
16140;DHT22;8175;49.326;12.690;2024-03-06T03:56:30;3.60;99.90
16140;DHT22;8175;49.326;12.690;2024-03-06T03:58:59;3.60;99.90
16140;DHT22;8175;49.326;12.690;2024-03-06T04:01:25;3.60;99.90
16140;DHT22;8175;49.326;12.690;2024-03-06T04:03:51;3.70;99.90
16140;DHT22;8175;49.326;12.690;2024-03-06T04:06:17;3.80;99.90
16140;DHT22;8175;49.326;12.690;2024-03-06T04:08:43;4.00;99.90
16140;DHT22;8175;49.326;12.690;2024-03-06T04:11:08;4.00;99.90
16140;DHT22;8175;49.326;12.690;2024-03-06T04:13:38;4.10;99.90
16140;DHT22;8175;49.326;12.690;2024-03-06T04:16:04;4.00;99.90
16140;DHT22;8175;49.326;12.690;2024-03-06T04:18:31;3.80;99.90
16140;DHT22;8175;49.326;12.690;2024-03-06T04:21:08;3.60;99.90
16140;DHT22;8175;49.326;12.690;2024-03-06T04:23:35;3.40;99.90
16140;DHT22;8175;49.326;12.690;2024-03-06T04:26:01;3.40;99.90
16140;DHT22;8175;49.326;12.690;2024-03-06T04:28:27;3.30;99.90
16140;DHT22;8175;49.326;12.690;2024-03-06T04:30:53;3.20;99.90
16140;DHT22;8175;49.326;12.690;2024-03-06T04:33:19;3.10;99.90
16140;DHT22;8175;49.326;12.690;2024-03-06T04:35:45;3.00;99.90
16140;DHT22;8175;49.326;12.690;2024-03-06T04:38:11;2.80;99.90
16140;DHT22;8175;49.326;12.690;2024-03-06T04:40:36;2.90;99.90
16140;DHT22;8175;49.326;12.690;2024-03-06T04:43:02;3.10;99.90
16140;DHT22;8175;49.326;12.690;2024-03-06T04:45:28;3.10;99.90
16140;DHT22;8175;49.326;12.690;2024-03-06T04:47:54;3.10;99.90
16140;DHT22;8175;49.326;12.690;2024-03-06T04:50:20;3.20;99.90
16140;DHT22;8175;49.326;12.690;2024-03-06T04:52:45;3.20;99.90
16140;DHT22;8175;49.326;12.690;2024-03-06T04:55:11;3.30;99.90
16140;DHT22;8175;49.326;12.690;2024-03-06T04:57:38;3.30;99.90
16140;DHT22;8175;49.326;12.690;2024-03-06T05:00:06;3.30;99.90
16140;DHT22;8175;49.326;12.690;2024-03-06T05:02:34;3.30;99.90
16140;DHT22;8175;49.326;12.690;2024-03-06T05:05:00;3.40;99.90
16140;DHT22;8175;49.326;12.690;2024-03-06T05:07:27;3.40;99.90
16140;DHT22;8175;49.326;12.690;2024-03-06T05:09:53;3.40;99.90
16140;DHT22;8175;49.326;12.690;2024-03-06T05:12:19;3.40;99.90
16140;DHT22;8175;49.326;12.690;2024-03-06T05:14:44;3.40;99.90
16140;DHT22;8175;49.326;12.690;2024-03-06T05:17:10;3.60;99.90
16140;DHT22;8175;49.326;12.690;2024-03-06T05:19:36;3.60;99.90
16140;DHT22;8175;49.326;12.690;2024-03-06T05:22:03;3.60;99.90
16140;DHT22;8175;49.326;12.690;2024-03-06T05:24:29;3.70;99.90
16140;DHT22;8175;49.326;12.690;2024-03-06T05:26:55;3.80;99.90
16140;DHT22;8175;49.326;12.690;2024-03-06T05:29:20;3.90;99.90
16140;DHT22;8175;49.326;12.690;2024-03-06T05:31:46;3.80;99.90
16140;DHT22;8175;49.326;12.690;2024-03-06T05:34:12;3.90;99.90
16140;DHT22;8175;49.326;12.690;2024-03-06T05:36:37;4.00;99.90
16140;DHT22;8175;49.326;12.690;2024-03-06T05:39:03;4.10;99.90
16140;DHT22;8175;49.326;12.690;2024-03-06T05:41:38;4.20;99.90
16140;DHT22;8175;49.326;12.690;2024-03-06T05:44:05;4.30;99.90
16140;DHT22;8175;49.326;12.690;2024-03-06T05:46:31;4.40;99.90
16140;DHT22;8175;49.326;12.690;2024-03-06T05:48:56;4.40;99.90
16140;DHT22;8175;49.326;12.690;2024-03-06T05:51:22;4.40;99.90
16140;DHT22;8175;49.326;12.690;2024-03-06T05:53:47;4.40;99.90
16140;DHT22;8175;49.326;12.690;2024-03-06T05:56:13;4.40;99.90
16140;DHT22;8175;49.326;12.690;2024-03-06T05:58:39;4.40;99.90
16140;DHT22;8175;49.326;12.690;2024-03-06T06:01:04;4.50;99.90
16140;DHT22;8175;49.326;12.690;2024-03-06T06:03:30;4.50;99.90
16140;DHT22;8175;49.326;12.690;2024-03-06T06:05:56;4.70;99.90
16140;DHT22;8175;49.326;12.690;2024-03-06T06:08:22;4.70;99.90
16140;DHT22;8175;49.326;12.690;2024-03-06T06:10:49;4.80;99.90
16140;DHT22;8175;49.326;12.690;2024-03-06T06:13:17;4.70;99.90
16140;DHT22;8175;49.326;12.690;2024-03-06T06:15:43;4.70;99.90
16140;DHT22;8175;49.326;12.690;2024-03-06T06:18:08;4.70;99.90
16140;DHT22;8175;49.326;12.690;2024-03-06T06:20:34;4.70;99.90
16140;DHT22;8175;49.326;12.690;2024-03-06T06:23:00;4.70;99.90
16140;DHT22;8175;49.326;12.690;2024-03-06T06:25:26;4.80;99.90
16140;DHT22;8175;49.326;12.690;2024-03-06T06:27:52;4.90;99.90
16140;DHT22;8175;49.326;12.690;2024-03-06T06:30:19;5.10;99.90
16140;DHT22;8175;49.326;12.690;2024-03-06T06:32:44;5.20;99.90
16140;DHT22;8175;49.326;12.690;2024-03-06T06:35:10;5.30;99.90
16140;DHT22;8175;49.326;12.690;2024-03-06T06:37:39;5.30;99.90
16140;DHT22;8175;49.326;12.690;2024-03-06T06:40:08;5.40;99.90
16140;DHT22;8175;49.326;12.690;2024-03-06T06:42:35;5.40;99.90
16140;DHT22;8175;49.326;12.690;2024-03-06T06:45:01;5.50;99.90
16140;DHT22;8175;49.326;12.690;2024-03-06T06:47:28;5.50;99.90
16140;DHT22;8175;49.326;12.690;2024-03-06T06:49:53;5.60;99.90
16140;DHT22;8175;49.326;12.690;2024-03-06T06:52:19;5.70;99.90
16140;DHT22;8175;49.326;12.690;2024-03-06T06:54:45;5.70;99.90
16140;DHT22;8175;49.326;12.690;2024-03-06T06:57:11;5.80;99.90
16140;DHT22;8175;49.326;12.690;2024-03-06T06:59:36;6.00;99.90
16140;DHT22;8175;49.326;12.690;2024-03-06T07:02:02;6.20;99.90
16140;DHT22;8175;49.326;12.690;2024-03-06T07:04:28;6.30;99.90
16140;DHT22;8175;49.326;12.690;2024-03-06T07:06:54;6.40;99.90
16140;DHT22;8175;49.326;12.690;2024-03-06T07:09:20;6.30;99.90
16140;DHT22;8175;49.326;12.690;2024-03-06T07:11:46;6.30;99.90
16140;DHT22;8175;49.326;12.690;2024-03-06T07:14:14;6.30;99.90
16140;DHT22;8175;49.326;12.690;2024-03-06T07:16:44;6.30;99.90
16140;DHT22;8175;49.326;12.690;2024-03-06T07:19:10;6.50;99.90
16140;DHT22;8175;49.326;12.690;2024-03-06T07:21:36;6.50;99.90
16140;DHT22;8175;49.326;12.690;2024-03-06T07:24:03;6.60;99.90
16140;DHT22;8175;49.326;12.690;2024-03-06T07:26:28;6.70;99.90
16140;DHT22;8175;49.326;12.690;2024-03-06T07:28:55;6.80;99.90
16140;DHT22;8175;49.326;12.690;2024-03-06T07:31:21;6.70;99.90
16140;DHT22;8175;49.326;12.690;2024-03-06T07:33:47;6.80;99.90
16140;DHT22;8175;49.326;12.690;2024-03-06T07:36:12;6.70;99.90
16140;DHT22;8175;49.326;12.690;2024-03-06T07:38:38;6.60;99.90
16140;DHT22;8175;49.326;12.690;2024-03-06T07:41:04;6.70;99.90
16140;DHT22;8175;49.326;12.690;2024-03-06T07:43:29;6.80;99.90
16140;DHT22;8175;49.326;12.690;2024-03-06T07:45:55;7.00;99.90
16140;DHT22;8175;49.326;12.690;2024-03-06T07:48:21;7.00;99.90
16140;DHT22;8175;49.326;12.690;2024-03-06T07:50:46;6.80;99.90
16140;DHT22;8175;49.326;12.690;2024-03-06T07:53:12;6.70;99.90
16140;DHT22;8175;49.326;12.690;2024-03-06T07:55:37;6.70;99.90
16140;DHT22;8175;49.326;12.690;2024-03-06T07:58:04;7.00;99.90
16140;DHT22;8175;49.326;12.690;2024-03-06T08:00:30;7.20;99.90
16140;DHT22;8175;49.326;12.690;2024-03-06T08:02:57;7.30;99.90
16140;DHT22;8175;49.326;12.690;2024-03-06T08:05:22;7.30;99.90
16140;DHT22;8175;49.326;12.690;2024-03-06T08:07:48;7.30;99.90
16140;DHT22;8175;49.326;12.690;2024-03-06T08:10:14;7.30;99.90
16140;DHT22;8175;49.326;12.690;2024-03-06T08:12:41;7.10;99.90
16140;DHT22;8175;49.326;12.690;2024-03-06T08:15:08;7.10;99.90
16140;DHT22;8175;49.326;12.690;2024-03-06T08:17:35;7.10;99.90
16140;DHT22;8175;49.326;12.690;2024-03-06T08:20:02;7.30;99.90
16140;DHT22;8175;49.326;12.690;2024-03-06T08:22:36;7.30;99.90
16140;DHT22;8175;49.326;12.690;2024-03-06T08:25:10;7.60;99.90
16140;DHT22;8175;49.326;12.690;2024-03-06T08:27:37;7.70;99.90
16140;DHT22;8175;49.326;12.690;2024-03-06T08:30:04;8.10;99.90
16140;DHT22;8175;49.326;12.690;2024-03-06T08:32:34;8.70;99.90
16140;DHT22;8175;49.326;12.690;2024-03-06T08:35:11;8.90;99.90
16140;DHT22;8175;49.326;12.690;2024-03-06T08:37:40;9.70;99.90
16140;DHT22;8175;49.326;12.690;2024-03-06T08:40:10;10.40;99.90
16140;DHT22;8175;49.326;12.690;2024-03-06T08:42:48;10.60;99.90
16140;DHT22;8175;49.326;12.690;2024-03-06T08:45:15;10.30;99.90
16140;DHT22;8175;49.326;12.690;2024-03-06T08:47:41;10.40;99.90
16140;DHT22;8175;49.326;12.690;2024-03-06T08:50:08;10.60;99.90
16140;DHT22;8175;49.326;12.690;2024-03-06T08:52:35;10.40;99.90
16140;DHT22;8175;49.326;12.690;2024-03-06T08:55:01;10.10;99.90
16140;DHT22;8175;49.326;12.690;2024-03-06T08:57:29;10.20;99.90
16140;DHT22;8175;49.326;12.690;2024-03-06T08:59:57;10.20;99.90
16140;DHT22;8175;49.326;12.690;2024-03-06T09:02:22;10.60;99.90
16140;DHT22;8175;49.326;12.690;2024-03-06T09:04:48;10.80;99.90
16140;DHT22;8175;49.326;12.690;2024-03-06T09:07:14;10.50;99.90
16140;DHT22;8175;49.326;12.690;2024-03-06T09:09:40;10.50;99.90
16140;DHT22;8175;49.326;12.690;2024-03-06T09:12:07;10.80;99.90
16140;DHT22;8175;49.326;12.690;2024-03-06T09:14:36;11.00;99.90
16140;DHT22;8175;49.326;12.690;2024-03-06T09:17:02;11.30;99.90
16140;DHT22;8175;49.326;12.690;2024-03-06T09:19:29;11.60;99.90
16140;DHT22;8175;49.326;12.690;2024-03-06T09:21:54;11.70;99.90
16140;DHT22;8175;49.326;12.690;2024-03-06T09:24:21;11.90;99.90
16140;DHT22;8175;49.326;12.690;2024-03-06T09:26:49;11.80;99.90
16140;DHT22;8175;49.326;12.690;2024-03-06T09:29:14;11.70;99.90
16140;DHT22;8175;49.326;12.690;2024-03-06T09:31:41;12.00;99.90
16140;DHT22;8175;49.326;12.690;2024-03-06T09:34:07;11.70;99.90
16140;DHT22;8175;49.326;12.690;2024-03-06T09:36:32;12.10;99.90
16140;DHT22;8175;49.326;12.690;2024-03-06T09:38:59;12.20;99.90
16140;DHT22;8175;49.326;12.690;2024-03-06T09:41:25;11.70;99.90
16140;DHT22;8175;49.326;12.690;2024-03-06T09:43:50;11.60;99.90
16140;DHT22;8175;49.326;12.690;2024-03-06T09:46:17;12.00;99.90
16140;DHT22;8175;49.326;12.690;2024-03-06T09:48:47;12.20;99.90
16140;DHT22;8175;49.326;12.690;2024-03-06T09:51:14;12.20;99.90
16140;DHT22;8175;49.326;12.690;2024-03-06T09:53:41;13.00;99.90
16140;DHT22;8175;49.326;12.690;2024-03-06T09:56:07;13.00;99.90
16140;DHT22;8175;49.326;12.690;2024-03-06T09:58:34;13.30;99.90
16140;DHT22;8175;49.326;12.690;2024-03-06T10:01:01;14.00;99.90
16140;DHT22;8175;49.326;12.690;2024-03-06T10:03:29;14.60;96.60
16140;DHT22;8175;49.326;12.690;2024-03-06T10:05:55;15.20;93.30
16140;DHT22;8175;49.326;12.690;2024-03-06T10:08:22;15.20;88.20
16140;DHT22;8175;49.326;12.690;2024-03-06T10:10:50;15.40;83.30
16140;DHT22;8175;49.326;12.690;2024-03-06T10:13:17;14.50;91.70
16140;DHT22;8175;49.326;12.690;2024-03-06T10:15:56;14.70;92.20
16140;DHT22;8175;49.326;12.690;2024-03-06T10:18:30;14.80;90.50
16140;DHT22;8175;49.326;12.690;2024-03-06T10:20:56;15.10;85.90
16140;DHT22;8175;49.326;12.690;2024-03-06T10:23:22;15.70;80.70
16140;DHT22;8175;49.326;12.690;2024-03-06T10:25:48;15.20;83.90
16140;DHT22;8175;49.326;12.690;2024-03-06T10:28:22;15.50;77.70
16140;DHT22;8175;49.326;12.690;2024-03-06T10:30:48;14.20;93.30
16140;DHT22;8175;49.326;12.690;2024-03-06T10:33:16;15.70;87.50
16140;DHT22;8175;49.326;12.690;2024-03-06T10:35:46;15.30;81.00
16140;DHT22;8175;49.326;12.690;2024-03-06T10:38:12;13.30;90.10
16140;DHT22;8175;49.326;12.690;2024-03-06T10:40:39;12.80;99.90
16140;DHT22;8175;49.326;12.690;2024-03-06T10:43:06;14.00;97.70
16140;DHT22;8175;49.326;12.690;2024-03-06T10:48:14;14.40;99.90
16140;DHT22;8175;49.326;12.690;2024-03-06T10:50:41;16.30;67.30
16140;DHT22;8175;49.326;12.690;2024-03-06T10:53:17;15.80;77.80
16140;DHT22;8175;49.326;12.690;2024-03-06T10:55:43;15.70;70.60
16140;DHT22;8175;49.326;12.690;2024-03-06T10:58:13;14.90;75.80
16140;DHT22;8175;49.326;12.690;2024-03-06T11:00:44;13.60;87.60
16140;DHT22;8175;49.326;12.690;2024-03-06T11:03:11;15.30;89.30
16140;DHT22;8175;49.326;12.690;2024-03-06T11:05:38;15.30;84.40
16140;DHT22;8175;49.326;12.690;2024-03-06T11:08:10;15.60;76.00
16140;DHT22;8175;49.326;12.690;2024-03-06T11:10:38;14.30;79.10
16140;DHT22;8175;49.326;12.690;2024-03-06T11:13:30;14.10;75.10
16140;DHT22;8175;49.326;12.690;2024-03-06T11:15:57;13.30;82.30
16140;DHT22;8175;49.326;12.690;2024-03-06T11:23:27;11.50;99.00
16140;DHT22;8175;49.326;12.690;2024-03-06T11:28:28;11.20;99.90
16140;DHT22;8175;49.326;12.690;2024-03-06T11:30:55;11.20;99.90
16140;DHT22;8175;49.326;12.690;2024-03-06T11:33:21;11.50;99.90
16140;DHT22;8175;49.326;12.690;2024-03-06T11:41:46;10.80;99.90
16140;DHT22;8175;49.326;12.690;2024-03-06T11:44:20;11.80;99.90
16140;DHT22;8175;49.326;12.690;2024-03-06T11:49:19;11.30;99.90
16140;DHT22;8175;49.326;12.690;2024-03-06T11:52:03;11.30;99.90
16140;DHT22;8175;49.326;12.690;2024-03-06T11:54:31;11.60;99.90
16140;DHT22;8175;49.326;12.690;2024-03-06T11:57:02;11.30;99.90
16140;DHT22;8175;49.326;12.690;2024-03-06T11:59:35;11.50;99.90
16140;DHT22;8175;49.326;12.690;2024-03-06T12:02:02;12.00;99.90
16140;DHT22;8175;49.326;12.690;2024-03-06T12:04:30;11.70;99.90
16140;DHT22;8175;49.326;12.690;2024-03-06T12:07:00;12.40;99.90
16140;DHT22;8175;49.326;12.690;2024-03-06T12:09:30;10.80;99.90
16140;DHT22;8175;49.326;12.690;2024-03-06T12:11:56;11.90;99.90
16140;DHT22;8175;49.326;12.690;2024-03-06T12:14:25;12.70;99.90
16140;DHT22;8175;49.326;12.690;2024-03-06T12:16:59;13.50;93.70
16140;DHT22;8175;49.326;12.690;2024-03-06T12:19:26;12.90;89.20
16140;DHT22;8175;49.326;12.690;2024-03-06T12:21:53;12.70;92.10
16140;DHT22;8175;49.326;12.690;2024-03-06T12:24:19;13.30;98.20
16140;DHT22;8175;49.326;12.690;2024-03-06T12:26:45;14.10;79.40
16140;DHT22;8175;49.326;12.690;2024-03-06T12:29:17;15.90;68.50
16140;DHT22;8175;49.326;12.690;2024-03-06T12:31:44;17.20;61.50
16140;DHT22;8175;49.326;12.690;2024-03-06T12:34:14;18.30;45.10
16140;DHT22;8175;49.326;12.690;2024-03-06T12:36:42;19.30;41.40
16140;DHT22;8175;49.326;12.690;2024-03-06T12:39:08;19.20;40.30
16140;DHT22;8175;49.326;12.690;2024-03-06T12:41:39;17.60;39.60
16140;DHT22;8175;49.326;12.690;2024-03-06T12:44:05;16.10;46.90
16140;DHT22;8175;49.326;12.690;2024-03-06T12:46:32;14.10;57.10
16140;DHT22;8175;49.326;12.690;2024-03-06T12:48:58;12.40;77.20
16140;DHT22;8175;49.326;12.690;2024-03-06T12:51:23;11.00;99.90
16140;DHT22;8175;49.326;12.690;2024-03-06T12:53:49;10.80;99.90
16140;DHT22;8175;49.326;12.690;2024-03-06T12:56:15;10.50;99.90
16140;DHT22;8175;49.326;12.690;2024-03-06T12:58:41;10.30;99.90
16140;DHT22;8175;49.326;12.690;2024-03-06T13:01:07;10.10;99.90
16140;DHT22;8175;49.326;12.690;2024-03-06T13:03:32;10.10;99.90
16140;DHT22;8175;49.326;12.690;2024-03-06T13:05:58;10.10;99.90
16140;DHT22;8175;49.326;12.690;2024-03-06T13:08:24;9.70;99.90
16140;DHT22;8175;49.326;12.690;2024-03-06T13:10:50;9.60;99.90
16140;DHT22;8175;49.326;12.690;2024-03-06T13:13:16;9.30;99.90
16140;DHT22;8175;49.326;12.690;2024-03-06T13:15:41;9.20;99.90
16140;DHT22;8175;49.326;12.690;2024-03-06T13:18:08;9.20;99.90
16140;DHT22;8175;49.326;12.690;2024-03-06T13:20:34;9.10;99.90
16140;DHT22;8175;49.326;12.690;2024-03-06T13:23:00;9.10;99.90
16140;DHT22;8175;49.326;12.690;2024-03-06T13:25:26;9.30;99.90
16140;DHT22;8175;49.326;12.690;2024-03-06T13:27:52;9.40;99.90
16140;DHT22;8175;49.326;12.690;2024-03-06T13:30:18;9.40;99.90
16140;DHT22;8175;49.326;12.690;2024-03-06T13:32:44;9.30;99.90
16140;DHT22;8175;49.326;12.690;2024-03-06T13:35:13;9.20;99.90
16140;DHT22;8175;49.326;12.690;2024-03-06T13:37:40;9.10;99.90
16140;DHT22;8175;49.326;12.690;2024-03-06T13:40:07;9.10;99.90
16140;DHT22;8175;49.326;12.690;2024-03-06T13:42:34;9.00;99.90
16140;DHT22;8175;49.326;12.690;2024-03-06T13:45:01;8.90;99.90
16140;DHT22;8175;49.326;12.690;2024-03-06T13:47:27;8.70;99.90
16140;DHT22;8175;49.326;12.690;2024-03-06T13:49:52;8.50;99.90
16140;DHT22;8175;49.326;12.690;2024-03-06T13:52:18;8.70;99.90
16140;DHT22;8175;49.326;12.690;2024-03-06T13:54:46;8.90;99.90
16140;DHT22;8175;49.326;12.690;2024-03-06T13:57:13;8.90;99.90
16140;DHT22;8175;49.326;12.690;2024-03-06T13:59:39;8.70;99.90
16140;DHT22;8175;49.326;12.690;2024-03-06T14:02:06;8.80;99.90
16140;DHT22;8175;49.326;12.690;2024-03-06T14:04:32;9.00;99.90
16140;DHT22;8175;49.326;12.690;2024-03-06T14:06:57;9.10;99.90
16140;DHT22;8175;49.326;12.690;2024-03-06T14:09:25;9.10;99.90
16140;DHT22;8175;49.326;12.690;2024-03-06T14:11:51;9.00;99.90
16140;DHT22;8175;49.326;12.690;2024-03-06T14:14:18;8.80;99.90
16140;DHT22;8175;49.326;12.690;2024-03-06T14:16:44;9.00;99.90
16140;DHT22;8175;49.326;12.690;2024-03-06T14:19:10;9.10;99.90
16140;DHT22;8175;49.326;12.690;2024-03-06T14:21:37;9.00;99.90
16140;DHT22;8175;49.326;12.690;2024-03-06T14:24:03;8.90;99.90
16140;DHT22;8175;49.326;12.690;2024-03-06T14:26:30;9.00;99.90
16140;DHT22;8175;49.326;12.690;2024-03-06T14:28:55;9.20;99.90
16140;DHT22;8175;49.326;12.690;2024-03-06T14:31:22;9.20;99.90
16140;DHT22;8175;49.326;12.690;2024-03-06T14:33:48;9.10;99.90
16140;DHT22;8175;49.326;12.690;2024-03-06T14:36:14;8.90;99.90
16140;DHT22;8175;49.326;12.690;2024-03-06T14:38:40;8.50;99.90
16140;DHT22;8175;49.326;12.690;2024-03-06T14:41:05;8.50;99.90
16140;DHT22;8175;49.326;12.690;2024-03-06T14:43:32;8.50;99.90
16140;DHT22;8175;49.326;12.690;2024-03-06T14:46:04;8.50;99.90
16140;DHT22;8175;49.326;12.690;2024-03-06T14:48:31;8.50;99.90
16140;DHT22;8175;49.326;12.690;2024-03-06T14:50:57;8.60;99.90
16140;DHT22;8175;49.326;12.690;2024-03-06T14:53:22;8.40;99.90
16140;DHT22;8175;49.326;12.690;2024-03-06T14:55:48;8.50;99.90
16140;DHT22;8175;49.326;12.690;2024-03-06T14:58:15;8.40;99.90
16140;DHT22;8175;49.326;12.690;2024-03-06T15:00:40;8.40;99.90
16140;DHT22;8175;49.326;12.690;2024-03-06T15:03:06;8.30;99.90
16140;DHT22;8175;49.326;12.690;2024-03-06T15:05:34;8.20;99.90
16140;DHT22;8175;49.326;12.690;2024-03-06T15:08:00;8.20;99.90
16140;DHT22;8175;49.326;12.690;2024-03-06T15:10:25;8.00;99.90
16140;DHT22;8175;49.326;12.690;2024-03-06T15:12:51;7.90;99.90
16140;DHT22;8175;49.326;12.690;2024-03-06T15:15:16;8.10;99.90
16140;DHT22;8175;49.326;12.690;2024-03-06T15:17:42;8.10;99.90
16140;DHT22;8175;49.326;12.690;2024-03-06T15:20:10;8.10;99.90
16140;DHT22;8175;49.326;12.690;2024-03-06T15:22:36;8.00;99.90
16140;DHT22;8175;49.326;12.690;2024-03-06T15:25:10;7.90;99.90
16140;DHT22;8175;49.326;12.690;2024-03-06T15:27:36;7.70;99.90
16140;DHT22;8175;49.326;12.690;2024-03-06T15:30:06;7.70;99.90
16140;DHT22;8175;49.326;12.690;2024-03-06T15:32:33;7.70;99.90
16140;DHT22;8175;49.326;12.690;2024-03-06T15:34:59;7.80;99.90
16140;DHT22;8175;49.326;12.690;2024-03-06T15:37:25;7.90;99.90
16140;DHT22;8175;49.326;12.690;2024-03-06T15:39:52;7.90;99.90
16140;DHT22;8175;49.326;12.690;2024-03-06T15:42:19;7.80;99.90
16140;DHT22;8175;49.326;12.690;2024-03-06T15:44:45;7.60;99.90
16140;DHT22;8175;49.326;12.690;2024-03-06T15:47:10;7.50;99.90
16140;DHT22;8175;49.326;12.690;2024-03-06T15:49:36;7.40;99.90
16140;DHT22;8175;49.326;12.690;2024-03-06T15:52:02;7.40;99.90
16140;DHT22;8175;49.326;12.690;2024-03-06T15:54:29;7.50;99.90
16140;DHT22;8175;49.326;12.690;2024-03-06T15:56:54;7.40;99.90